createdAt,value
2022-12-17T00:00:33.490Z,935.89
2022-12-17T00:01:34.228Z,935.85
2022-12-17T00:02:35.229Z,935.88
2022-12-17T00:03:36.507Z,935.9
2022-12-17T00:04:36.421Z,935.92
2022-12-17T00:05:36.869Z,935.95
2022-12-17T00:06:37.941Z,936
2022-12-17T00:07:38.112Z,935.96
2022-12-17T00:08:38.564Z,936.03
2022-12-17T00:09:39.175Z,936.01
2022-12-17T00:10:39.702Z,935.99
2022-12-17T00:11:40.162Z,935.98
2022-12-17T00:12:40.626Z,936.02
2022-12-17T00:13:41.391Z,935.99
2022-12-17T00:14:41.577Z,936.03
2022-12-17T00:15:41.932Z,936.01
2022-12-17T00:16:42.644Z,936.03
2022-12-17T00:17:43.165Z,936.07
2022-12-17T00:18:44.087Z,936.08
2022-12-17T00:19:45.144Z,936.04
2022-12-17T00:20:45.565Z,936.08
2022-12-17T00:21:45.929Z,936.07
2022-12-17T00:22:46.702Z,936.09
2022-12-17T00:23:47.125Z,936.13
2022-12-17T00:24:47.641Z,936.16
2022-12-17T00:25:47.748Z,936.17
2022-12-17T00:26:48.560Z,936.17
2022-12-17T00:27:48.822Z,936.17
2022-12-17T00:28:49.435Z,936.21
2022-12-17T00:29:50.393Z,936.18
2022-12-17T00:30:51.304Z,936.17
2022-12-17T00:31:52.249Z,936.17
2022-12-17T00:32:53.259Z,936.21
2022-12-17T00:33:53.977Z,936.18
2022-12-17T00:34:54.166Z,936.19
2022-12-17T00:35:55.185Z,936.2
2022-12-17T00:36:55.822Z,936.23
2022-12-17T00:37:56.716Z,936.24
2022-12-17T00:38:57.325Z,936.25
2022-12-17T00:39:59.455Z,936.2
2022-12-17T00:40:58.501Z,936.19
2022-12-17T00:41:58.856Z,936.24
2022-12-17T00:42:59.044Z,936.22
2022-12-17T00:43:59.933Z,936.24
2022-12-17T00:45:00.539Z,936.26
2022-12-17T00:46:01.522Z,936.27
2022-12-17T00:47:01.679Z,936.27
2022-12-17T00:48:01.827Z,936.25
2022-12-17T00:49:02.031Z,936.32
2022-12-17T00:50:02.220Z,936.31
2022-12-17T00:51:02.557Z,936.35
2022-12-17T00:52:03.187Z,936.33
2022-12-17T00:53:03.789Z,936.33
2022-12-17T00:54:04.079Z,936.37
2022-12-17T00:55:04.667Z,936.38
2022-12-17T00:56:04.972Z,936.38
2022-12-17T00:57:05.226Z,936.43
2022-12-17T00:58:05.822Z,936.43
2022-12-17T00:59:06.737Z,936.43
2022-12-17T01:00:07.639Z,936.46
2022-12-17T01:01:08.183Z,936.45
2022-12-17T01:02:09.223Z,936.49
2022-12-17T01:03:09.445Z,936.53
2022-12-17T01:04:10.352Z,936.54
2022-12-17T01:05:10.558Z,936.55
2022-12-17T01:06:11.250Z,936.58
2022-12-17T01:07:11.492Z,936.59
2022-12-17T01:08:11.695Z,936.57
2022-12-17T01:09:11.884Z,936.59
2022-12-17T01:10:12.514Z,936.66
2022-12-17T01:11:13.434Z,936.62
2022-12-17T01:12:13.699Z,936.64
2022-12-17T01:13:14.330Z,936.67
2022-12-17T01:14:14.813Z,936.63
2022-12-17T01:15:15.430Z,936.69
2022-12-17T01:16:16.413Z,936.71
2022-12-17T01:17:16.860Z,936.75
2022-12-17T01:18:17.042Z,936.72
2022-12-17T01:19:17.964Z,936.75
2022-12-17T01:20:18.888Z,936.73
2022-12-17T01:21:19.211Z,936.78
2022-12-17T01:22:20.201Z,936.81
2022-12-17T01:23:20.399Z,936.8
2022-12-17T01:24:20.914Z,936.8
2022-12-17T01:25:21.098Z,936.84
2022-12-17T01:26:21.300Z,936.81
2022-12-17T01:27:21.806Z,936.88
2022-12-17T01:28:22.715Z,936.9
2022-12-17T01:29:23.607Z,936.9
2022-12-17T01:30:23.785Z,936.87
2022-12-17T01:31:24.036Z,936.94
2022-12-17T01:32:24.737Z,936.93
2022-12-17T01:33:24.923Z,936.92
2022-12-17T01:34:25.084Z,936.91
2022-12-17T01:35:25.703Z,936.9
2022-12-17T01:36:26.432Z,936.91
2022-12-17T01:37:27.375Z,936.93
2022-12-17T01:38:28.261Z,936.93
2022-12-17T01:39:29.178Z,936.95
2022-12-17T01:40:29.794Z,936.96
2022-12-17T01:41:29.997Z,936.98
2022-12-17T01:42:30.606Z,936.97
2022-12-17T01:43:31.561Z,937
2022-12-17T01:44:32.593Z,937
2022-12-17T01:45:33.529Z,936.97
2022-12-17T01:46:34.099Z,936.98
2022-12-17T01:47:35.019Z,937.01
2022-12-17T01:48:35.946Z,937.01
2022-12-17T01:49:36.558Z,937.01
2022-12-17T01:50:36.745Z,937.07
2022-12-17T01:51:36.945Z,937.03
2022-12-17T01:52:37.606Z,937.06
2022-12-17T01:53:38.851Z,937.11
2022-12-17T01:54:38.921Z,937.11
2022-12-17T01:55:39.262Z,937.17
2022-12-17T01:56:40.010Z,937.15
2022-12-17T01:57:40.367Z,937.16
2022-12-17T01:58:41.407Z,937.14
2022-12-17T01:59:42.297Z,937.16
2022-12-17T02:00:42.534Z,937.14
2022-12-17T02:01:43.322Z,937.14
2022-12-17T02:02:43.638Z,937.13
2022-12-17T02:03:44.493Z,937.15
2022-12-17T02:04:44.846Z,937.18
2022-12-17T02:05:45.322Z,937.18
2022-12-17T02:06:46.025Z,937.2
2022-12-17T02:07:46.328Z,937.17
2022-12-17T02:08:46.826Z,937.21
2022-12-17T02:09:47.454Z,937.22
2022-12-17T02:10:47.665Z,937.18
2022-12-17T02:11:48.199Z,937.25
2022-12-17T02:12:48.473Z,937.24
2022-12-17T02:13:48.667Z,937.23
2022-12-17T02:14:49.277Z,937.28
2022-12-17T02:15:49.775Z,937.25
2022-12-17T02:16:50.395Z,937.28
2022-12-17T02:17:51.429Z,937.32
2022-12-17T02:18:51.650Z,937.36
2022-12-17T02:19:52.652Z,937.32
2022-12-17T02:20:53.569Z,937.33
2022-12-17T02:21:53.780Z,937.32
2022-12-17T02:22:54.563Z,937.31
2022-12-17T02:23:56.493Z,937.36
2022-12-17T02:24:55.557Z,937.32
2022-12-17T02:25:55.742Z,937.33
2022-12-17T02:26:56.445Z,937.33
2022-12-17T02:27:56.737Z,937.35
2022-12-17T02:28:56.922Z,937.32
2022-12-17T02:29:57.405Z,937.3
2022-12-17T02:30:58.321Z,937.31
2022-12-17T02:31:59.406Z,937.34
2022-12-17T02:33:00.395Z,937.29
2022-12-17T02:34:01.300Z,937.31
2022-12-17T02:35:01.493Z,937.32
2022-12-17T02:36:02.102Z,937.28
2022-12-17T02:37:02.394Z,937.27
2022-12-17T02:38:03.044Z,937.28
2022-12-17T02:39:03.896Z,937.28
2022-12-17T02:40:04.583Z,937.28
2022-12-17T02:41:05.581Z,937.32
2022-12-17T02:42:06.667Z,937.32
2022-12-17T02:43:07.303Z,937.32
2022-12-17T02:44:07.517Z,937.31
2022-12-17T02:45:08.424Z,937.34
2022-12-17T02:46:08.808Z,937.33
2022-12-17T02:47:09.476Z,937.33
2022-12-17T02:48:10.393Z,937.34
2022-12-17T02:49:11.002Z,937.32
2022-12-17T02:50:11.185Z,937.34
2022-12-17T02:51:12.103Z,937.35
2022-12-17T02:52:12.306Z,937.38
2022-12-17T02:53:13.088Z,937.36
2022-12-17T02:54:13.965Z,937.39
2022-12-17T02:55:14.157Z,937.41
2022-12-17T02:56:14.369Z,937.41
2022-12-17T02:57:15.034Z,937.45
2022-12-17T02:58:15.557Z,937.48
2022-12-17T02:59:16.044Z,937.47
2022-12-17T03:00:16.235Z,937.47
2022-12-17T03:01:16.851Z,937.46
2022-12-17T03:02:17.680Z,937.47
2022-12-17T03:03:17.985Z,937.5
2022-12-17T03:04:18.825Z,937.51
2022-12-17T03:05:43.219Z,937.55
2022-12-17T03:06:19.516Z,937.49
2022-12-17T03:07:19.639Z,937.6
2022-12-17T03:08:20.570Z,937.56
2022-12-17T03:09:21.471Z,937.56
2022-12-17T03:10:22.109Z,937.59
2022-12-17T03:11:22.316Z,937.59
2022-12-17T03:12:22.545Z,937.62
2022-12-17T03:13:23.082Z,937.6
2022-12-17T03:14:23.680Z,937.6
2022-12-17T03:15:23.772Z,937.64
2022-12-17T03:16:24.730Z,937.63
2022-12-17T03:17:25.127Z,937.66
2022-12-17T03:18:26.007Z,937.69
2022-12-17T03:19:26.903Z,937.7
2022-12-17T03:20:27.538Z,937.68
2022-12-17T03:21:27.725Z,937.69
2022-12-17T03:22:27.932Z,937.68
2022-12-17T03:23:28.563Z,937.73
2022-12-17T03:24:28.860Z,937.7
2022-12-17T03:25:29.049Z,937.72
2022-12-17T03:26:29.994Z,937.77
2022-12-17T03:27:30.990Z,937.71
2022-12-17T03:28:32.053Z,937.71
2022-12-17T03:29:32.965Z,937.69
2022-12-17T03:30:35.931Z,937.72
2022-12-17T03:31:34.173Z,937.68
2022-12-17T03:32:34.485Z,937.69
2022-12-17T03:33:35.073Z,937.7
2022-12-17T03:34:35.391Z,937.69
2022-12-17T03:35:36.012Z,937.69
2022-12-17T03:36:36.903Z,937.7
2022-12-17T03:37:37.630Z,937.71
2022-12-17T03:38:37.847Z,937.69
2022-12-17T03:39:38.787Z,937.7
2022-12-17T03:40:39.410Z,937.71
2022-12-17T03:41:40.348Z,937.73
2022-12-17T03:42:40.607Z,937.74
2022-12-17T03:43:41.320Z,937.69
2022-12-17T03:44:41.525Z,937.7
2022-12-17T03:45:42.211Z,937.7
2022-12-17T03:46:42.424Z,937.72
2022-12-17T03:47:42.868Z,937.75
2022-12-17T03:48:43.658Z,937.75
2022-12-17T03:49:44.144Z,937.71
2022-12-17T03:50:45.033Z,937.77
2022-12-17T03:51:45.931Z,937.81
2022-12-17T03:52:46.136Z,937.75
2022-12-17T03:53:47.065Z,937.81
2022-12-17T03:54:47.308Z,937.81
2022-12-17T03:55:48.211Z,937.81
2022-12-17T03:56:48.397Z,937.83
2022-12-17T03:57:49.023Z,937.8
2022-12-17T03:58:49.563Z,937.82
2022-12-17T03:59:50.469Z,937.83
2022-12-17T04:00:50.794Z,937.86
2022-12-17T04:01:51.722Z,937.86
2022-12-17T04:02:52.776Z,937.85
2022-12-17T04:03:53.063Z,937.88
2022-12-17T04:04:53.973Z,937.88
2022-12-17T04:05:54.171Z,937.93
2022-12-17T04:06:55.063Z,937.93
2022-12-17T04:07:55.517Z,937.93
2022-12-17T04:08:56.443Z,937.98
2022-12-17T04:09:57.325Z,937.97
2022-12-17T04:10:58.236Z,937.97
2022-12-17T04:11:58.423Z,938.04
2022-12-17T04:12:58.781Z,938.01
2022-12-17T04:13:59.336Z,938.03
2022-12-17T04:14:59.827Z,938.04
2022-12-17T04:16:00.082Z,938.01
2022-12-17T04:17:00.380Z,938.01
2022-12-17T04:18:00.804Z,938.04
2022-12-17T04:19:01.010Z,938.07
2022-12-17T04:20:01.331Z,938.04
2022-12-17T04:21:01.945Z,938.05
2022-12-17T04:22:02.151Z,938.05
2022-12-17T04:23:03.070Z,938.07
2022-12-17T04:24:03.384Z,938.02
2022-12-17T04:25:04.005Z,938.07
2022-12-17T04:26:04.926Z,938.1
2022-12-17T04:27:05.126Z,938.08
2022-12-17T04:28:05.547Z,938.12
2022-12-17T04:29:06.529Z,938.13
2022-12-17T04:30:07.005Z,938.15
2022-12-17T04:31:07.538Z,938.13
2022-12-17T04:32:07.737Z,938.18
2022-12-17T04:33:08.224Z,938.21
2022-12-17T04:34:08.706Z,938.18
2022-12-17T04:35:09.331Z,938.24
2022-12-17T04:36:10.238Z,938.25
2022-12-17T04:37:11.141Z,938.23
2022-12-17T04:38:11.449Z,938.25
2022-12-17T04:39:12.361Z,938.28
2022-12-17T04:40:13.255Z,938.31
2022-12-17T04:41:13.468Z,938.29
2022-12-17T04:42:13.670Z,938.32
2022-12-17T04:43:14.580Z,938.32
2022-12-17T04:44:14.892Z,938.38
2022-12-17T04:45:15.786Z,938.35
2022-12-17T04:46:16.505Z,938.36
2022-12-17T04:47:17.124Z,938.39
2022-12-17T04:48:17.546Z,938.43
2022-12-17T04:49:18.175Z,938.43
2022-12-17T04:50:18.808Z,938.48
2022-12-17T04:51:19.430Z,938.47
2022-12-17T04:52:20.327Z,938.52
2022-12-17T04:53:21.235Z,938.49
2022-12-17T04:54:22.184Z,938.53
2022-12-17T04:55:23.099Z,938.55
2022-12-17T04:56:24.047Z,938.54
2022-12-17T04:57:24.702Z,938.59
2022-12-17T04:58:25.154Z,938.57
2022-12-17T04:59:26.120Z,938.58
2022-12-17T05:00:27.034Z,938.58
2022-12-17T05:01:27.635Z,938.65
2022-12-17T05:02:28.139Z,938.58
2022-12-17T05:03:28.602Z,938.63
2022-12-17T05:04:29.513Z,938.66
2022-12-17T05:05:30.123Z,938.65
2022-12-17T05:06:31.031Z,938.7
2022-12-17T05:07:31.942Z,938.7
2022-12-17T05:08:35.662Z,938.75
2022-12-17T05:09:33.376Z,938.74
2022-12-17T05:10:34.007Z,938.82
2022-12-17T05:11:34.905Z,938.8
2022-12-17T05:12:35.534Z,938.84
2022-12-17T05:13:36.084Z,938.87
2022-12-17T05:14:36.547Z,938.88
2022-12-17T05:15:37.193Z,938.86
2022-12-17T05:16:37.272Z,938.85
2022-12-17T05:17:37.462Z,938.83
2022-12-17T05:18:37.904Z,938.87
2022-12-17T05:19:38.538Z,938.92
2022-12-17T05:20:39.460Z,938.91
2022-12-17T05:21:40.395Z,938.92
2022-12-17T05:22:40.686Z,938.93
2022-12-17T05:23:40.898Z,938.92
2022-12-17T05:24:42.001Z,938.96
2022-12-17T05:25:42.176Z,938.98
2022-12-17T05:26:43.082Z,939.04
2022-12-17T05:27:43.988Z,939.02
2022-12-17T05:28:44.988Z,939.03
2022-12-17T05:29:46.016Z,939.05
2022-12-17T05:30:46.574Z,939.07
2022-12-17T05:31:47.075Z,939.09
2022-12-17T05:32:47.293Z,939.09
2022-12-17T05:33:48.183Z,939.09
2022-12-17T05:34:48.810Z,939.1
2022-12-17T05:35:49.068Z,939.06
2022-12-17T05:36:49.979Z,939.09
2022-12-17T05:37:50.885Z,939.08
2022-12-17T05:38:51.278Z,939.08
2022-12-17T05:39:52.005Z,939.1
2022-12-17T05:40:52.953Z,939.11
2022-12-17T05:41:53.588Z,939.12
2022-12-17T05:42:53.933Z,939.12
2022-12-17T05:43:54.844Z,939.1
2022-12-17T05:44:55.138Z,939.08
2022-12-17T05:45:55.624Z,939.11
2022-12-17T05:46:56.298Z,939.16
2022-12-17T05:47:56.645Z,939.12
2022-12-17T05:48:57.354Z,939.12
2022-12-17T05:49:57.967Z,939.17
2022-12-17T05:50:58.595Z,939.17
2022-12-17T05:51:59.083Z,939.2
2022-12-17T05:52:59.267Z,939.19
2022-12-17T05:53:59.753Z,939.25
2022-12-17T05:55:00.133Z,939.24
2022-12-17T05:56:00.339Z,939.27
2022-12-17T05:57:00.834Z,939.26
2022-12-17T05:58:01.743Z,939.32
2022-12-17T05:59:02.036Z,939.36
2022-12-17T06:00:02.570Z,939.33
2022-12-17T06:01:03.167Z,939.34
2022-12-17T06:02:03.376Z,939.4
2022-12-17T06:03:04.108Z,939.36
2022-12-17T06:04:04.442Z,939.33
2022-12-17T06:05:05.457Z,939.36
2022-12-17T06:06:05.660Z,939.36
2022-12-17T06:07:05.982Z,939.36
2022-12-17T06:08:06.905Z,939.36
2022-12-17T06:09:07.883Z,939.37
2022-12-17T06:10:08.610Z,939.4
2022-12-17T06:11:08.812Z,939.4
2022-12-17T06:12:09.713Z,939.42
2022-12-17T06:13:10.321Z,939.41
2022-12-17T06:14:10.530Z,939.43
2022-12-17T06:15:11.105Z,939.42
2022-12-17T06:16:12.125Z,939.42
2022-12-17T06:17:12.338Z,939.46
2022-12-17T06:18:16.592Z,939.46
2022-12-17T06:19:13.672Z,939.43
2022-12-17T06:20:14.559Z,939.48
2022-12-17T06:21:14.747Z,939.49
2022-12-17T06:22:15.653Z,939.48
2022-12-17T06:23:15.974Z,939.52
2022-12-17T06:24:16.453Z,939.52
2022-12-17T06:25:17.422Z,939.53
2022-12-17T06:26:18.322Z,939.53
2022-12-17T06:27:19.229Z,939.52
2022-12-17T06:28:19.865Z,939.55
2022-12-17T06:29:20.582Z,939.53
2022-12-17T06:30:21.538Z,939.55
2022-12-17T06:31:22.238Z,939.57
2022-12-17T06:32:23.181Z,939.52
2022-12-17T06:33:23.395Z,939.52
2022-12-17T06:34:24.183Z,939.56
2022-12-17T06:35:25.072Z,939.57
2022-12-17T06:36:26.112Z,939.58
2022-12-17T06:37:27.023Z,939.62
2022-12-17T06:38:27.936Z,939.64
2022-12-17T06:39:28.405Z,939.63
2022-12-17T06:40:28.906Z,939.65
2022-12-17T06:41:29.522Z,939.68
2022-12-17T06:42:30.406Z,939.67
2022-12-17T06:43:30.747Z,939.7
2022-12-17T06:44:31.467Z,939.71
2022-12-17T06:45:31.797Z,939.75
2022-12-17T06:46:32.782Z,939.75
2022-12-17T06:47:33.488Z,939.77
2022-12-17T06:48:34.531Z,939.76
2022-12-17T06:49:34.976Z,939.77
2022-12-17T06:50:36.055Z,939.81
2022-12-17T06:51:36.663Z,939.77
2022-12-17T06:52:36.877Z,939.78
2022-12-17T06:53:37.374Z,939.83
2022-12-17T06:54:37.557Z,939.82
2022-12-17T06:55:38.483Z,939.82
2022-12-17T06:56:39.085Z,939.83
2022-12-17T06:57:41.768Z,939.79
2022-12-17T06:58:40.675Z,939.84
2022-12-17T06:59:41.725Z,939.89
2022-12-17T07:00:42.325Z,939.83
2022-12-17T07:01:42.719Z,939.9
2022-12-17T07:02:43.378Z,939.94
2022-12-17T07:03:43.427Z,939.94
2022-12-17T07:04:43.506Z,939.97
2022-12-17T07:05:44.119Z,939.99
2022-12-17T07:06:44.609Z,940
2022-12-17T07:07:45.409Z,940.07
2022-12-17T07:08:45.851Z,940.05
2022-12-17T07:09:46.405Z,940.07
2022-12-17T07:10:46.874Z,940.07
2022-12-17T07:11:47.259Z,940.09
2022-12-17T07:12:48.228Z,940.1
2022-12-17T07:13:48.420Z,940.13
2022-12-17T07:14:48.642Z,940.14
2022-12-17T07:15:48.771Z,940.16
2022-12-17T07:16:49.737Z,940.14
2022-12-17T07:17:50.008Z,940.18
2022-12-17T07:18:50.901Z,940.2
2022-12-17T07:19:51.648Z,940.2
2022-12-17T07:20:52.297Z,940.21
2022-12-17T07:21:52.486Z,940.21
2022-12-17T07:22:53.106Z,940.24
2022-12-17T07:23:53.316Z,940.2
2022-12-17T07:24:53.516Z,940.22
2022-12-17T07:25:54.163Z,940.28
2022-12-17T07:26:54.428Z,940.23
2022-12-17T07:27:54.920Z,940.25
2022-12-17T07:28:55.543Z,940.26
2022-12-17T07:29:55.984Z,940.27
2022-12-17T07:30:56.938Z,940.27
2022-12-17T07:31:57.193Z,940.25
2022-12-17T07:32:58.092Z,940.27
2022-12-17T07:33:59.009Z,940.27
2022-12-17T07:34:59.675Z,940.3
2022-12-17T07:35:59.880Z,940.35
2022-12-17T07:37:00.888Z,940.37
2022-12-17T07:38:01.605Z,940.38
2022-12-17T07:39:01.811Z,940.37
2022-12-17T07:40:02.877Z,940.32
2022-12-17T07:41:03.537Z,940.37
2022-12-17T07:42:04.451Z,940.36
2022-12-17T07:43:05.364Z,940.39
2022-12-17T07:44:05.843Z,940.4
2022-12-17T07:45:06.388Z,940.39
2022-12-17T07:46:06.706Z,940.41
2022-12-17T07:47:07.235Z,940.41
2022-12-17T07:48:07.855Z,940.37
2022-12-17T07:49:08.763Z,940.41
2022-12-17T07:50:09.795Z,940.39
2022-12-17T07:51:10.491Z,940.39
2022-12-17T07:52:11.408Z,940.37
2022-12-17T07:53:12.308Z,940.35
2022-12-17T07:54:13.218Z,940.35
2022-12-17T07:55:18.026Z,940.38
2022-12-17T07:56:14.434Z,940.37
2022-12-17T07:57:15.063Z,940.37
2022-12-17T07:58:15.267Z,940.35
2022-12-17T07:59:15.476Z,940.36
2022-12-17T08:00:16.291Z,940.37
2022-12-17T08:01:16.635Z,940.37
2022-12-17T08:02:17.475Z,940.41
2022-12-17T08:03:18.381Z,940.44
2022-12-17T08:04:18.925Z,940.45
2022-12-17T08:05:19.565Z,940.42
2022-12-17T08:06:20.186Z,940.45
2022-12-17T08:07:20.378Z,940.48
2022-12-17T08:08:21.288Z,940.49
2022-12-17T08:09:21.491Z,940.48
2022-12-17T08:10:22.181Z,940.5
2022-12-17T08:11:22.402Z,940.51
2022-12-17T08:12:23.329Z,940.51
2022-12-17T08:13:24.240Z,940.52
2022-12-17T08:14:24.786Z,940.59
2022-12-17T08:15:25.696Z,940.61
2022-12-17T08:16:26.282Z,940.6
2022-12-17T08:17:26.791Z,940.64
2022-12-17T08:18:27.173Z,940.61
2022-12-17T08:19:28.096Z,940.63
2022-12-17T08:20:28.937Z,940.68
2022-12-17T08:21:29.257Z,940.69
2022-12-17T08:22:29.570Z,940.71
2022-12-17T08:23:30.463Z,940.78
2022-12-17T08:24:31.430Z,940.78
2022-12-17T08:25:32.322Z,940.83
2022-12-17T08:26:32.931Z,940.82
2022-12-17T08:27:33.102Z,940.84
2022-12-17T08:28:49.920Z,940.83
2022-12-17T08:29:34.384Z,940.89
2022-12-17T08:30:34.585Z,940.88
2022-12-17T08:31:34.964Z,940.92
2022-12-17T08:32:35.864Z,940.89
2022-12-17T08:33:36.955Z,940.88
2022-12-17T08:34:37.448Z,940.91
2022-12-17T08:35:38.339Z,940.88
2022-12-17T08:36:39.260Z,940.89
2022-12-17T08:37:39.893Z,940.89
2022-12-17T08:38:40.808Z,940.89
2022-12-17T08:39:41.211Z,940.95
2022-12-17T08:40:41.765Z,940.93
2022-12-17T08:41:42.721Z,940.9
2022-12-17T08:42:43.565Z,940.95
2022-12-17T08:43:43.750Z,940.95
2022-12-17T08:44:44.668Z,940.91
2022-12-17T08:45:45.308Z,940.94
2022-12-17T08:46:45.668Z,941
2022-12-17T08:47:46.597Z,940.98
2022-12-17T08:48:47.343Z,941.01
2022-12-17T08:49:47.534Z,941.03
2022-12-17T08:50:48.095Z,941.06
2022-12-17T08:51:49.031Z,941.05
2022-12-17T08:52:49.657Z,941.07
2022-12-17T08:53:50.582Z,941.1
2022-12-17T08:54:51.215Z,941.15
2022-12-17T08:55:51.410Z,941.14
2022-12-17T08:56:52.077Z,941.15
2022-12-17T08:57:53.011Z,941.18
2022-12-17T08:58:58.798Z,941.19
2022-12-17T08:59:54.247Z,941.23
2022-12-17T09:00:55.317Z,941.22
2022-12-17T09:01:56.350Z,941.25
2022-12-17T09:02:56.979Z,941.24
2022-12-17T09:03:57.147Z,941.29
2022-12-17T09:04:57.491Z,941.31
2022-12-17T09:05:58.407Z,941.34
2022-12-17T09:06:59.037Z,941.34
2022-12-17T09:07:59.251Z,941.34
2022-12-17T09:09:00.141Z,941.34
2022-12-17T09:10:01.048Z,941.34
2022-12-17T09:11:01.470Z,941.39
2022-12-17T09:12:02.240Z,941.4
2022-12-17T09:13:04.832Z,941.39
2022-12-17T09:14:03.294Z,941.42
2022-12-17T09:15:03.926Z,941.4
2022-12-17T09:16:04.828Z,941.43
2022-12-17T09:17:05.784Z,941.47
2022-12-17T09:18:06.435Z,941.45
2022-12-17T09:19:06.650Z,941.51
2022-12-17T09:20:07.130Z,941.47
2022-12-17T09:21:07.485Z,941.52
2022-12-17T09:22:08.391Z,941.53
2022-12-17T09:23:08.984Z,941.53
2022-12-17T09:24:09.205Z,941.54
2022-12-17T09:25:10.121Z,941.54
2022-12-17T09:26:11.166Z,941.54
2022-12-17T09:27:11.482Z,941.53
2022-12-17T09:28:12.361Z,941.56
2022-12-17T09:29:12.976Z,941.54
2022-12-17T09:30:13.604Z,941.52
2022-12-17T09:31:13.912Z,941.54
2022-12-17T09:32:14.660Z,941.57
2022-12-17T09:33:15.295Z,941.49
2022-12-17T09:34:15.915Z,941.5
2022-12-17T09:35:16.824Z,941.5
2022-12-17T09:36:17.022Z,941.46
2022-12-17T09:37:17.916Z,941.54
2022-12-17T09:38:18.530Z,941.56
2022-12-17T09:39:19.444Z,941.56
2022-12-17T09:40:20.378Z,941.58
2022-12-17T09:41:21.079Z,941.58
2022-12-17T09:42:22.148Z,941.59
2022-12-17T09:43:22.626Z,941.59
2022-12-17T09:44:23.204Z,941.58
2022-12-17T09:45:23.691Z,941.6
2022-12-17T09:46:24.671Z,941.61
2022-12-17T09:47:25.338Z,941.65
2022-12-17T09:48:30.855Z,941.68
2022-12-17T09:49:26.843Z,941.64
2022-12-17T09:50:27.745Z,941.67
2022-12-17T09:51:28.754Z,941.67
2022-12-17T09:52:29.670Z,941.64
2022-12-17T09:53:30.590Z,941.65
2022-12-17T09:54:30.949Z,941.66
2022-12-17T09:55:31.164Z,941.64
2022-12-17T09:56:32.084Z,941.68
2022-12-17T09:57:32.320Z,941.64
2022-12-17T09:58:32.518Z,941.69
2022-12-17T09:59:32.710Z,941.65
2022-12-17T10:00:32.895Z,941.65
2022-12-17T10:01:33.110Z,941.66
2022-12-17T10:02:33.628Z,941.69
2022-12-17T10:03:34.153Z,941.68
2022-12-17T10:04:34.010Z,941.71
2022-12-17T10:05:34.645Z,941.73
2022-12-17T10:06:35.274Z,941.75
2022-12-17T10:07:36.195Z,941.77
2022-12-17T10:08:36.630Z,941.78
2022-12-17T10:09:36.965Z,941.83
2022-12-17T10:10:37.786Z,941.81
2022-12-17T10:11:37.911Z,941.83
2022-12-17T10:12:38.128Z,941.86
2022-12-17T10:13:39.395Z,941.91
2022-12-17T10:14:39.257Z,941.9
2022-12-17T10:15:40.327Z,941.91
2022-12-17T10:16:41.311Z,941.91
2022-12-17T10:17:41.865Z,941.92
2022-12-17T10:18:42.077Z,941.93
2022-12-17T10:19:42.363Z,941.95
2022-12-17T10:20:43.272Z,941.93
2022-12-17T10:21:44.289Z,941.94
2022-12-17T10:22:44.779Z,941.96
2022-12-17T10:23:44.976Z,941.92
2022-12-17T10:24:45.171Z,941.98
2022-12-17T10:25:45.372Z,941.93
2022-12-17T10:26:45.559Z,941.99
2022-12-17T10:27:46.323Z,941.92
2022-12-17T10:28:46.938Z,941.93
2022-12-17T10:29:48.341Z,941.96
2022-12-17T10:30:48.034Z,941.91
2022-12-17T10:31:48.743Z,941.93
2022-12-17T10:32:48.986Z,941.93
2022-12-17T10:33:49.322Z,941.95
2022-12-17T10:34:49.518Z,941.98
2022-12-17T10:35:50.314Z,941.97
2022-12-17T10:36:50.956Z,941.99
2022-12-17T10:37:51.869Z,941.97
2022-12-17T10:38:52.935Z,941.97
2022-12-17T10:39:53.551Z,942.01
2022-12-17T10:40:53.756Z,942.01
2022-12-17T10:41:54.054Z,942.05
2022-12-17T10:42:54.272Z,942.02
2022-12-17T10:43:54.756Z,942.03
2022-12-17T10:44:55.649Z,942
2022-12-17T10:45:56.614Z,941.99
2022-12-17T10:46:57.381Z,941.98
2022-12-17T10:47:57.627Z,941.97
2022-12-17T10:48:58.557Z,941.97
2022-12-17T10:49:59.341Z,941.98
2022-12-17T10:51:00.318Z,941.97
2022-12-17T10:52:00.447Z,942.01
2022-12-17T10:53:01.352Z,942.03
2022-12-17T10:54:02.265Z,942.01
2022-12-17T10:55:03.172Z,942.06
2022-12-17T10:56:04.063Z,942.07
2022-12-17T10:57:04.977Z,942.07
2022-12-17T10:58:05.750Z,942.07
2022-12-17T10:59:06.652Z,942.08
2022-12-17T11:00:07.270Z,942.09
2022-12-17T11:01:08.255Z,942.05
2022-12-17T11:02:08.452Z,942.11
2022-12-17T11:03:09.272Z,942.07
2022-12-17T11:04:09.531Z,942.1
2022-12-17T11:05:09.714Z,942.11
2022-12-17T11:06:10.629Z,942.11
2022-12-17T11:07:10.820Z,942.13
2022-12-17T11:08:11.433Z,942.1
2022-12-17T11:09:12.049Z,942.07
2022-12-17T11:10:12.232Z,942.11
2022-12-17T11:11:12.424Z,942.1
2022-12-17T11:12:12.987Z,942.09
2022-12-17T11:13:13.162Z,942.07
2022-12-17T11:14:13.361Z,942.08
2022-12-17T11:15:13.563Z,942.1
2022-12-17T11:16:14.577Z,942.07
2022-12-17T11:17:14.990Z,942.09
2022-12-17T11:18:15.609Z,942.06
2022-12-17T11:19:16.108Z,942.06
2022-12-17T11:20:16.455Z,942.05
2022-12-17T11:21:17.367Z,942.03
2022-12-17T11:22:17.703Z,941.99
2022-12-17T11:23:17.897Z,942.01
2022-12-17T11:24:22.352Z,942.02
2022-12-17T11:25:19.903Z,942.02
2022-12-17T11:26:20.517Z,942.01
2022-12-17T11:27:20.733Z,942.02
2022-12-17T11:28:20.975Z,942.03
2022-12-17T11:29:21.873Z,942.02
2022-12-17T11:30:26.293Z,941.99
2022-12-17T11:31:22.956Z,941.96
2022-12-17T11:32:23.152Z,941.96
2022-12-17T11:33:23.779Z,941.99
2022-12-17T11:34:24.209Z,941.98
2022-12-17T11:35:25.128Z,941.99
2022-12-17T11:36:30.413Z,941.93
2022-12-17T11:37:25.761Z,941.94
2022-12-17T11:38:25.945Z,941.9
2022-12-17T11:39:26.335Z,941.94
2022-12-17T11:40:26.541Z,941.94
2022-12-17T11:41:26.736Z,941.94
2022-12-17T11:42:26.847Z,941.94
2022-12-17T11:43:27.078Z,941.92
2022-12-17T11:44:27.268Z,941.97
2022-12-17T11:45:27.461Z,941.93
2022-12-17T11:46:28.114Z,941.96
2022-12-17T11:47:28.348Z,941.9
2022-12-17T11:48:29.359Z,941.92
2022-12-17T11:49:30.057Z,941.92
2022-12-17T11:50:30.553Z,941.85
2022-12-17T11:51:31.468Z,941.88
2022-12-17T11:52:31.729Z,941.9
2022-12-17T11:53:31.833Z,941.89
2022-12-17T11:54:32.068Z,941.86
2022-12-17T11:55:32.279Z,941.88
2022-12-17T11:56:32.606Z,941.84
2022-12-17T11:57:33.515Z,941.85
2022-12-17T11:58:34.679Z,941.9
2022-12-17T11:59:34.651Z,941.87
2022-12-17T12:00:35.139Z,941.91
2022-12-17T12:01:36.132Z,941.9
2022-12-17T12:02:36.636Z,941.91
2022-12-17T12:03:37.780Z,941.89
2022-12-17T12:04:38.724Z,941.91
2022-12-17T12:05:39.293Z,941.93
2022-12-17T12:06:40.221Z,941.92
2022-12-17T12:07:41.138Z,941.93
2022-12-17T12:08:41.752Z,941.93
2022-12-17T12:09:42.667Z,941.89
2022-12-17T12:10:42.881Z,941.9
2022-12-17T12:11:43.377Z,941.92
2022-12-17T12:12:44.071Z,941.88
2022-12-17T12:13:45.014Z,941.92
2022-12-17T12:14:45.498Z,941.92
2022-12-17T12:15:46.475Z,941.89
2022-12-17T12:16:46.760Z,941.9
2022-12-17T12:17:46.951Z,941.9
2022-12-17T12:18:47.228Z,941.9
2022-12-17T12:19:48.125Z,941.91
2022-12-17T12:20:49.036Z,941.93
2022-12-17T12:21:49.229Z,941.93
2022-12-17T12:22:50.245Z,941.95
2022-12-17T12:23:51.182Z,941.93
2022-12-17T12:24:51.803Z,941.94
2022-12-17T12:25:52.418Z,941.92
2022-12-17T12:26:52.611Z,941.96
2022-12-17T12:27:52.947Z,941.97
2022-12-17T12:28:53.892Z,941.97
2022-12-17T12:29:54.130Z,942
2022-12-17T12:30:54.441Z,941.97
2022-12-17T12:31:55.114Z,941.99
2022-12-17T12:32:55.609Z,941.99
2022-12-17T12:33:57.026Z,941.96
2022-12-17T12:34:56.931Z,941.97
2022-12-17T12:35:57.838Z,941.99
2022-12-17T12:36:58.328Z,942.02
2022-12-17T12:37:58.512Z,942
2022-12-17T12:38:59.411Z,941.97